createdAt,value
2023-05-25T00:00:18.096Z,22.30
2023-05-25T00:01:18.113Z,22.30
2023-05-25T00:02:18.279Z,22.30
2023-05-25T00:03:18.279Z,22.31
2023-05-25T00:04:18.303Z,22.30
2023-05-25T00:05:18.374Z,22.31
2023-05-25T00:06:18.332Z,22.30
2023-05-25T00:07:18.374Z,22.29
2023-05-25T00:08:18.374Z,22.30
2023-05-25T00:09:18.389Z,22.29
2023-05-25T00:10:18.377Z,22.30
2023-05-25T00:11:18.378Z,22.29
2023-05-25T00:12:18.353Z,22.29
2023-05-25T00:13:18.374Z,22.29
2023-05-25T00:14:18.384Z,22.29
2023-05-25T00:15:18.383Z,22.30
2023-05-25T00:16:18.396Z,22.29
2023-05-25T00:17:18.471Z,22.29
2023-05-25T00:18:18.564Z,22.29
2023-05-25T00:19:18.455Z,22.29
2023-05-25T00:20:18.517Z,22.29
2023-05-25T00:21:18.474Z,22.29
2023-05-25T00:22:18.461Z,22.29
2023-05-25T00:23:18.469Z,22.29
2023-05-25T00:24:18.440Z,22.29
2023-05-25T00:25:18.431Z,22.28
2023-05-25T00:26:18.414Z,22.28
2023-05-25T00:27:18.389Z,22.29
2023-05-25T00:28:18.387Z,22.29
2023-05-25T00:29:18.365Z,22.29
2023-05-25T00:30:18.372Z,22.28
2023-05-25T00:31:18.406Z,22.29
2023-05-25T00:32:18.365Z,22.28
2023-05-25T00:33:18.360Z,22.28
2023-05-25T00:34:18.344Z,22.28
2023-05-25T00:35:18.325Z,22.28
2023-05-25T00:36:18.312Z,22.28
2023-05-25T00:37:18.346Z,22.28
2023-05-25T00:38:18.367Z,22.28
2023-05-25T00:39:18.394Z,22.27
2023-05-25T00:40:18.484Z,22.28
2023-05-25T00:41:18.451Z,22.27
2023-05-25T00:42:18.451Z,22.28
2023-05-25T00:43:18.470Z,22.27
2023-05-25T00:44:18.504Z,22.26
2023-05-25T00:45:18.530Z,22.27
2023-05-25T00:46:18.548Z,22.27
2023-05-25T00:47:18.505Z,22.26
2023-05-25T00:48:18.509Z,22.27
2023-05-25T00:49:18.466Z,22.26
2023-05-25T00:50:18.483Z,22.27
2023-05-25T00:51:18.511Z,22.26
2023-05-25T00:52:18.536Z,22.26
2023-05-25T00:53:18.565Z,22.26
2023-05-25T00:54:18.568Z,22.27
2023-05-25T00:55:18.583Z,22.27
2023-05-25T00:56:18.601Z,22.26
2023-05-25T00:57:18.607Z,22.26
2023-05-25T00:58:18.605Z,22.26
2023-05-25T00:59:18.608Z,22.26
2023-05-25T01:00:18.624Z,22.25
2023-05-25T01:01:18.723Z,22.26
2023-05-25T01:02:18.672Z,22.26
2023-05-25T01:03:18.718Z,22.25
2023-05-25T01:04:18.687Z,22.26
2023-05-25T01:05:18.797Z,22.26
2023-05-25T01:06:18.715Z,22.25
2023-05-25T01:07:18.752Z,22.26
2023-05-25T01:08:18.799Z,22.26
2023-05-25T01:09:18.868Z,22.25
2023-05-25T01:10:18.919Z,22.25
2023-05-25T01:11:18.977Z,22.25
2023-05-25T01:12:19.023Z,22.25
2023-05-25T01:13:19.075Z,22.25
2023-05-25T01:14:19.104Z,22.24
2023-05-25T01:15:19.148Z,22.25
2023-05-25T01:16:19.246Z,22.24
2023-05-25T01:17:19.376Z,22.25
2023-05-25T01:18:19.281Z,22.25
2023-05-25T01:19:19.336Z,22.24
2023-05-25T01:20:19.415Z,22.25
2023-05-25T01:21:19.461Z,22.24
2023-05-25T01:22:19.523Z,22.25
2023-05-25T01:23:19.587Z,22.25
2023-05-25T01:24:19.659Z,22.24
2023-05-25T01:25:19.687Z,22.24
2023-05-25T01:26:19.718Z,22.24
2023-05-25T01:27:19.736Z,22.23
2023-05-25T01:28:19.764Z,22.25
2023-05-25T01:29:19.793Z,22.23
2023-05-25T01:30:19.783Z,22.23
2023-05-25T01:31:19.804Z,22.24
2023-05-25T01:32:19.932Z,22.23
2023-05-25T01:33:19.854Z,22.24
2023-05-25T01:34:19.860Z,22.23
2023-05-25T01:35:19.901Z,22.23
2023-05-25T01:36:19.879Z,22.24
2023-05-25T01:37:19.879Z,22.23
2023-05-25T01:38:19.891Z,22.23
2023-05-25T01:39:19.897Z,22.23
2023-05-25T01:40:19.878Z,22.22
2023-05-25T01:41:19.877Z,22.23
2023-05-25T01:42:19.882Z,22.22
2023-05-25T01:43:19.876Z,22.22
2023-05-25T01:44:19.849Z,22.22
2023-05-25T01:45:19.839Z,22.22
2023-05-25T01:46:19.905Z,22.22
2023-05-25T01:47:19.817Z,22.22
2023-05-25T01:48:19.822Z,22.22
2023-05-25T01:49:19.802Z,22.22
2023-05-25T01:50:19.805Z,22.22
2023-05-25T01:51:19.774Z,22.22
2023-05-25T01:52:19.839Z,22.22
2023-05-25T01:53:19.747Z,22.22
2023-05-25T01:54:19.738Z,22.22
2023-05-25T01:55:19.752Z,22.22
2023-05-25T01:56:19.788Z,22.21
2023-05-25T01:57:19.808Z,22.21
2023-05-25T01:58:19.822Z,22.21
2023-05-25T01:59:19.874Z,22.21
2023-05-25T02:00:19.879Z,22.21
2023-05-25T02:01:19.942Z,22.22
2023-05-25T02:02:19.957Z,22.21
2023-05-25T02:03:20.299Z,22.21
2023-05-25T02:04:20.081Z,22.20
2023-05-25T02:05:20.140Z,22.21
2023-05-25T02:06:20.172Z,22.21
2023-05-25T02:07:20.228Z,22.21
2023-05-25T02:08:20.286Z,22.20
2023-05-25T02:09:20.322Z,22.20
2023-05-25T02:10:20.360Z,22.21
2023-05-25T02:11:20.411Z,22.20
2023-05-25T02:12:20.437Z,22.20
2023-05-25T02:13:20.475Z,22.20
2023-05-25T02:14:20.458Z,22.19
2023-05-25T02:15:20.469Z,22.20
2023-05-25T02:16:20.523Z,22.19
2023-05-25T02:17:20.523Z,22.20
2023-05-25T02:18:20.486Z,22.20
2023-05-25T02:19:20.476Z,22.19
2023-05-25T02:20:20.485Z,22.19
2023-05-25T02:21:20.466Z,22.20
2023-05-25T02:22:20.511Z,22.19
2023-05-25T02:23:20.546Z,22.20
2023-05-25T02:24:20.559Z,22.19
2023-05-25T02:25:20.553Z,22.20
2023-05-25T02:26:20.557Z,22.20
2023-05-25T02:27:20.582Z,22.20
2023-05-25T02:28:20.572Z,22.20
2023-05-25T02:29:20.561Z,22.19
2023-05-25T02:30:20.566Z,22.19
2023-05-25T02:31:20.607Z,22.19
2023-05-25T02:32:20.601Z,22.19
2023-05-25T02:33:20.596Z,22.19
2023-05-25T02:34:20.621Z,22.19
2023-05-25T02:35:20.673Z,22.18
2023-05-25T02:36:20.703Z,22.19
2023-05-25T02:37:20.679Z,22.19
2023-05-25T02:38:20.680Z,22.19
2023-05-25T02:39:20.661Z,22.18
2023-05-25T02:40:20.659Z,22.18
2023-05-25T02:41:20.629Z,22.19
2023-05-25T02:42:20.613Z,22.17
2023-05-25T02:43:20.611Z,22.18
2023-05-25T02:44:20.597Z,22.18
2023-05-25T02:45:20.572Z,22.18
2023-05-25T02:46:20.588Z,22.18
2023-05-25T02:47:20.556Z,22.18
2023-05-25T02:48:20.537Z,22.18
2023-05-25T02:49:20.531Z,22.17
2023-05-25T02:50:20.536Z,22.18
2023-05-25T02:51:20.548Z,22.17
2023-05-25T02:52:20.559Z,22.17
2023-05-25T02:53:20.568Z,22.18
2023-05-25T02:54:20.592Z,22.17
2023-05-25T02:55:20.630Z,22.18
2023-05-25T02:56:20.682Z,22.18
2023-05-25T02:57:20.678Z,22.17
2023-05-25T02:58:20.699Z,22.17
2023-05-25T02:59:20.712Z,22.17
2023-05-25T03:00:20.714Z,22.18
2023-05-25T03:01:20.789Z,22.17
2023-05-25T03:02:20.785Z,22.17
2023-05-25T03:03:20.825Z,22.16
2023-05-25T03:04:20.732Z,22.17
2023-05-25T03:05:20.769Z,22.17
2023-05-25T03:06:20.797Z,22.16
2023-05-25T03:07:20.803Z,22.16
2023-05-25T03:08:20.827Z,22.17
2023-05-25T03:09:20.850Z,22.16
2023-05-25T03:10:20.869Z,22.16
2023-05-25T03:11:20.891Z,22.17
2023-05-25T03:12:20.903Z,22.16
2023-05-25T03:13:20.950Z,22.17
2023-05-25T03:14:20.969Z,22.16
2023-05-25T03:15:20.982Z,22.17
2023-05-25T03:16:21.033Z,22.16
2023-05-25T03:17:21.016Z,22.16
2023-05-25T03:18:20.997Z,22.16
2023-05-25T03:19:20.984Z,22.15
2023-05-25T03:20:21.067Z,22.15
2023-05-25T03:21:21.052Z,22.15
2023-05-25T03:22:21.083Z,22.16
2023-05-25T03:23:21.104Z,22.15
2023-05-25T03:24:21.112Z,22.16
2023-05-25T03:25:21.105Z,22.16
2023-05-25T03:26:21.089Z,22.15
2023-05-25T03:27:21.168Z,22.15
2023-05-25T03:28:21.070Z,22.15
2023-05-25T03:29:21.051Z,22.15
2023-05-25T03:30:21.051Z,22.15
2023-05-25T03:31:21.072Z,22.15
2023-05-25T03:32:21.128Z,22.15
2023-05-25T03:33:21.026Z,22.15
2023-05-25T03:34:21.014Z,22.14
2023-05-25T03:35:21.028Z,22.15
2023-05-25T03:36:21.017Z,22.15
2023-05-25T03:37:21.036Z,22.14
2023-05-25T03:38:21.033Z,22.15
2023-05-25T03:39:21.044Z,22.15
2023-05-25T03:40:21.043Z,22.15
2023-05-25T03:41:21.020Z,22.15
2023-05-25T03:42:21.022Z,22.14
2023-05-25T03:43:21.013Z,22.14
2023-05-25T03:44:21.034Z,22.13
2023-05-25T03:45:21.014Z,22.13
2023-05-25T03:46:21.074Z,22.13
2023-05-25T03:47:21.061Z,22.14
2023-05-25T03:48:21.040Z,22.13
2023-05-25T03:49:21.047Z,22.13
2023-05-25T03:50:21.046Z,22.13
2023-05-25T03:51:21.030Z,22.13
2023-05-25T03:52:21.020Z,22.13
2023-05-25T03:53:21.032Z,22.13
2023-05-25T03:54:21.046Z,22.13
2023-05-25T03:55:21.048Z,22.13
2023-05-25T03:56:21.041Z,22.13
2023-05-25T03:57:21.023Z,22.13
2023-05-25T03:58:21.037Z,22.13
2023-05-25T03:59:21.010Z,22.14
2023-05-25T04:00:20.995Z,22.13
2023-05-25T04:01:20.996Z,22.13
2023-05-25T04:02:21.019Z,22.13
2023-05-25T04:03:21.168Z,22.13
2023-05-25T04:04:20.997Z,22.13
2023-05-25T04:05:20.977Z,22.12
2023-05-25T04:06:20.965Z,22.12
2023-05-25T04:07:20.977Z,22.12
2023-05-25T04:08:20.969Z,22.12
2023-05-25T04:09:20.963Z,22.13
2023-05-25T04:10:20.972Z,22.12
2023-05-25T04:11:21.006Z,22.12
2023-05-25T04:12:20.985Z,22.12
2023-05-25T04:13:20.976Z,22.12
2023-05-25T04:14:20.992Z,22.12
2023-05-25T04:15:20.965Z,22.12
2023-05-25T04:16:21.009Z,22.11
2023-05-25T04:17:20.964Z,22.11
2023-05-25T04:18:20.976Z,22.12
2023-05-25T04:19:20.970Z,22.11
2023-05-25T04:20:21.040Z,22.12
2023-05-25T04:21:20.994Z,22.11
2023-05-25T04:22:20.977Z,22.10
2023-05-25T04:23:20.970Z,22.11
2023-05-25T04:24:20.978Z,22.12
2023-05-25T04:25:20.956Z,22.11
2023-05-25T04:26:20.952Z,22.11
2023-05-25T04:27:20.964Z,22.11
2023-05-25T04:28:20.961Z,22.11
2023-05-25T04:29:20.937Z,22.12
2023-05-25T04:30:20.940Z,22.11
2023-05-25T04:31:20.932Z,22.11
2023-05-25T04:32:20.917Z,22.10
2023-05-25T04:33:20.918Z,22.11
2023-05-25T04:34:20.916Z,22.11
2023-05-25T04:35:20.984Z,22.11
2023-05-25T04:36:20.899Z,22.11
2023-05-25T04:37:20.887Z,22.11
2023-05-25T04:38:21.349Z,22.11
2023-05-25T04:39:20.887Z,22.11
2023-05-25T04:40:20.869Z,22.10
2023-05-25T04:41:20.865Z,22.10
2023-05-25T04:42:20.857Z,22.10
2023-05-25T04:43:20.849Z,22.11
2023-05-25T04:44:20.850Z,22.11
2023-05-25T04:45:20.837Z,22.11
2023-05-25T04:46:20.876Z,22.10
2023-05-25T04:47:20.816Z,22.11
2023-05-25T04:48:20.825Z,22.10
2023-05-25T04:49:20.820Z,22.10
2023-05-25T04:50:20.824Z,22.10
2023-05-25T04:51:20.841Z,22.10
2023-05-25T04:52:20.841Z,22.10
2023-05-25T04:53:20.830Z,22.11
2023-05-25T04:54:20.842Z,22.10
2023-05-25T04:55:20.862Z,22.10
2023-05-25T04:56:20.863Z,22.10
2023-05-25T04:57:20.873Z,22.10
2023-05-25T04:58:20.882Z,22.10
2023-05-25T04:59:20.892Z,22.10
2023-05-25T05:00:20.882Z,22.10
2023-05-25T05:01:20.911Z,22.10
2023-05-25T05:02:20.895Z,22.11
2023-05-25T05:03:20.998Z,22.09
2023-05-25T05:04:20.851Z,22.09
2023-05-25T05:05:20.848Z,22.08
2023-05-25T05:06:20.846Z,22.07
2023-05-25T05:07:20.853Z,22.08
2023-05-25T05:08:20.856Z,22.08
2023-05-25T05:09:20.849Z,22.07
2023-05-25T05:10:20.857Z,22.07
2023-05-25T05:11:20.839Z,22.07
2023-05-25T05:12:20.844Z,22.07
2023-05-25T05:13:20.841Z,22.08
2023-05-25T05:14:20.852Z,22.08
2023-05-25T05:15:20.843Z,22.08
2023-05-25T05:16:20.859Z,22.09
2023-05-25T05:17:20.827Z,22.09
2023-05-25T05:18:20.829Z,22.09
2023-05-25T05:19:20.828Z,22.09
2023-05-25T05:20:20.900Z,22.09
2023-05-25T05:21:22.774Z,22.11
2023-05-25T05:22:20.936Z,22.11
2023-05-25T05:23:20.944Z,22.12
2023-05-25T05:24:20.984Z,22.11
2023-05-25T05:25:20.973Z,22.12
2023-05-25T05:26:20.974Z,22.12
2023-05-25T05:27:20.970Z,22.13
2023-05-25T05:28:20.994Z,22.13
2023-05-25T05:29:20.983Z,22.14
2023-05-25T05:30:20.975Z,22.16
2023-05-25T05:31:21.076Z,22.19
2023-05-25T05:32:21.870Z,22.21
2023-05-25T05:33:21.124Z,22.25
2023-05-25T05:34:21.404Z,22.28
2023-05-25T05:35:21.029Z,22.33
2023-05-25T05:36:21.060Z,22.36
2023-05-25T05:37:21.104Z,22.40
2023-05-25T05:38:21.165Z,22.43
2023-05-25T05:39:21.233Z,22.45
2023-05-25T05:40:21.282Z,22.49
2023-05-25T05:41:22.876Z,22.52
2023-05-25T05:42:21.319Z,22.54
2023-05-25T05:43:21.290Z,22.58
2023-05-25T05:44:21.283Z,22.61
2023-05-25T05:45:21.251Z,22.65
2023-05-25T05:46:21.244Z,22.67
2023-05-25T05:47:21.231Z,22.69
2023-05-25T05:48:21.872Z,22.72
2023-05-25T05:49:21.214Z,22.75
2023-05-25T05:50:21.202Z,22.77
2023-05-25T05:51:21.182Z,22.80
2023-05-25T05:52:21.167Z,22.81
2023-05-25T05:53:21.156Z,22.84
2023-05-25T05:54:21.133Z,22.86
2023-05-25T05:55:21.122Z,22.87
2023-05-25T05:56:21.112Z,22.89
2023-05-25T05:57:21.096Z,22.90
2023-05-25T05:58:21.084Z,22.91
2023-05-25T05:59:21.080Z,22.93
2023-05-25T06:00:21.073Z,22.94
2023-05-25T06:01:21.039Z,22.95
2023-05-25T06:02:21.051Z,22.96
2023-05-25T06:03:21.045Z,22.98
2023-05-25T06:04:21.054Z,22.99
2023-05-25T06:05:21.033Z,23.00
2023-05-25T06:06:20.960Z,23.00
2023-05-25T06:07:20.941Z,23.02
2023-05-25T06:08:20.919Z,23.03
2023-05-25T06:09:20.927Z,23.04
2023-05-25T06:10:20.897Z,23.05
2023-05-25T06:11:20.850Z,23.05
2023-05-25T06:12:20.832Z,23.06
2023-05-25T06:13:20.815Z,23.07
2023-05-25T06:14:20.796Z,23.08
2023-05-25T06:15:20.792Z,23.08
2023-05-25T06:16:20.819Z,23.10
2023-05-25T06:17:20.743Z,23.09
2023-05-25T06:18:20.721Z,23.10
2023-05-25T06:19:20.706Z,23.10
2023-05-25T06:20:20.728Z,23.11
2023-05-25T06:21:20.668Z,23.10
2023-05-25T06:22:20.646Z,23.10
2023-05-25T06:23:20.614Z,23.11
2023-05-25T06:24:20.617Z,23.09
2023-05-25T06:25:20.629Z,23.05
2023-05-25T06:26:21.392Z,23.05
2023-05-25T06:27:20.742Z,23.04
2023-05-25T06:28:20.715Z,23.05
2023-05-25T06:29:20.748Z,23.08
2023-05-25T06:30:20.758Z,23.08
2023-05-25T06:31:20.789Z,23.10
2023-05-25T06:32:20.818Z,23.11
2023-05-25T06:33:20.830Z,23.11
2023-05-25T06:34:20.847Z,23.10
2023-05-25T06:35:20.879Z,23.11
2023-05-25T06:36:20.898Z,23.09
2023-05-25T06:37:21.808Z,23.10
2023-05-25T06:38:20.945Z,23.10
2023-05-25T06:39:20.976Z,23.11
2023-05-25T06:40:20.989Z,23.10
2023-05-25T06:41:21.010Z,23.10
2023-05-25T06:42:21.029Z,23.11
2023-05-25T06:43:21.892Z,23.11
2023-05-25T06:44:21.083Z,23.10
2023-05-25T06:45:21.103Z,23.10
2023-05-25T06:46:21.164Z,23.10
2023-05-25T06:47:21.166Z,23.11
2023-05-25T06:48:21.184Z,23.11
2023-05-25T06:49:21.210Z,23.13
2023-05-25T06:50:21.233Z,23.12
2023-05-25T06:51:21.259Z,23.14
2023-05-25T06:52:21.280Z,23.15
2023-05-25T06:53:21.299Z,23.14
2023-05-25T06:54:21.335Z,23.15
2023-05-25T06:55:21.347Z,23.15
2023-05-25T06:56:21.359Z,23.16
2023-05-25T06:57:21.393Z,23.17
2023-05-25T06:58:21.422Z,23.16
2023-05-25T06:59:21.429Z,23.16
2023-05-25T07:00:21.476Z,23.16
2023-05-25T07:01:21.504Z,23.17
2023-05-25T07:02:21.655Z,23.18
2023-05-25T07:03:21.506Z,23.19
2023-05-25T07:04:21.543Z,23.21
2023-05-25T07:05:21.630Z,23.23
2023-05-25T07:06:22.331Z,23.25
2023-05-25T07:07:21.582Z,23.26
2023-05-25T07:08:21.602Z,23.28
2023-05-25T07:09:21.629Z,23.30
2023-05-25T07:10:21.644Z,23.32
2023-05-25T07:11:21.668Z,23.38
2023-05-25T07:12:21.700Z,23.42
2023-05-25T07:13:21.712Z,23.44
2023-05-25T07:14:21.721Z,23.44
2023-05-25T07:15:21.741Z,23.46
2023-05-25T07:16:21.786Z,23.45
2023-05-25T07:17:21.818Z,23.41
2023-05-25T07:18:21.779Z,23.42
2023-05-25T07:19:21.816Z,23.42
2023-05-25T07:20:21.864Z,23.41
2023-05-25T07:21:21.850Z,23.40
2023-05-25T07:22:21.853Z,23.39
2023-05-25T07:23:21.869Z,23.34
2023-05-25T07:24:21.888Z,23.27
2023-05-25T07:25:21.917Z,23.16
2023-05-25T07:26:21.949Z,23.06
2023-05-25T07:27:21.987Z,22.97
2023-05-25T07:28:22.035Z,22.87
2023-05-25T07:29:22.108Z,22.77
2023-05-25T07:30:22.181Z,22.69
2023-05-25T07:31:22.967Z,22.61
2023-05-25T07:32:22.236Z,22.51
2023-05-25T07:33:22.171Z,22.45
2023-05-25T07:34:22.158Z,22.39
2023-05-25T07:35:22.155Z,22.33
2023-05-25T07:36:22.144Z,22.29
2023-05-25T07:37:22.150Z,22.27
2023-05-25T07:38:22.138Z,22.23
2023-05-25T07:39:22.165Z,22.00
2023-05-25T07:40:22.175Z,21.73
2023-05-25T07:41:22.181Z,21.65
2023-05-25T07:42:22.209Z,21.67
2023-05-25T07:43:22.242Z,21.68
2023-05-25T07:44:22.262Z,21.75
2023-05-25T07:45:22.264Z,21.85
2023-05-25T07:46:22.343Z,21.96
2023-05-25T07:47:22.260Z,22.08
2023-05-25T07:48:22.255Z,22.19
2023-05-25T07:49:22.266Z,22.29
2023-05-25T07:50:22.866Z,22.39
2023-05-25T07:51:22.337Z,22.49
2023-05-25T07:52:22.406Z,22.56
2023-05-25T07:53:22.433Z,22.64
2023-05-25T07:54:22.482Z,22.75
2023-05-25T07:55:22.516Z,22.84
2023-05-25T07:56:22.532Z,22.92
2023-05-25T07:57:22.561Z,23.01
2023-05-25T07:58:22.584Z,23.12
2023-05-25T07:59:22.592Z,23.22
2023-05-25T08:00:22.738Z,23.30
2023-05-25T08:01:23.553Z,23.39
2023-05-25T08:02:22.704Z,23.47
2023-05-25T08:03:31.933Z,23.55
2023-05-25T08:04:23.682Z,23.63
2023-05-25T08:05:22.599Z,23.71
2023-05-25T08:06:22.569Z,23.77
2023-05-25T08:07:22.542Z,23.80
2023-05-25T08:08:22.501Z,23.82
2023-05-25T08:09:22.486Z,23.87
2023-05-25T08:10:22.501Z,23.91
2023-05-25T08:11:22.433Z,23.94
2023-05-25T08:12:42.339Z,23.97
2023-05-25T08:13:23.369Z,24.00
2023-05-25T08:14:22.334Z,24.01
2023-05-25T08:15:22.310Z,23.97
2023-05-25T08:16:22.317Z,23.97
2023-05-25T08:17:22.416Z,23.98
2023-05-25T08:18:22.251Z,23.98
2023-05-25T08:19:22.220Z,23.95
2023-05-25T08:20:22.261Z,23.93
2023-05-25T08:21:22.168Z,23.89
2023-05-25T08:22:22.148Z,23.83
2023-05-25T08:23:22.119Z,23.77
2023-05-25T08:24:22.092Z,23.77
2023-05-25T08:25:22.083Z,23.78
2023-05-25T08:27:23.027Z,23.73
2023-05-25T08:28:22.001Z,23.69
2023-05-25T08:29:21.969Z,23.64
2023-05-25T08:30:21.939Z,23.55
2023-05-25T08:31:21.977Z,23.44
2023-05-25T08:32:21.954Z,23.33
2023-05-25T08:33:22.449Z,23.23
2023-05-25T08:34:21.852Z,23.22
2023-05-25T08:35:21.828Z,23.22
2023-05-25T08:36:22.816Z,23.25
2023-05-25T08:37:21.785Z,23.23
2023-05-25T08:38:21.767Z,23.20
2023-05-25T08:39:21.951Z,23.14
2023-05-25T08:40:21.741Z,23.08
2023-05-25T08:41:21.740Z,23.00
2023-05-25T08:42:21.716Z,22.91
2023-05-25T08:43:21.710Z,22.85
2023-05-25T08:44:21.701Z,22.86
2023-05-25T08:45:34.200Z,22.87
2023-05-25T08:46:22.668Z,22.91
2023-05-25T08:47:21.644Z,22.97
2023-05-25T08:49:21.639Z,23.09
2023-05-25T08:50:21.600Z,23.14
2023-05-25T08:51:21.588Z,23.18
2023-05-25T08:52:21.569Z,23.23
2023-05-25T08:53:21.553Z,23.28
2023-05-25T08:54:21.519Z,23.32
2023-05-25T08:55:21.461Z,23.36
2023-05-25T08:56:21.429Z,23.39
2023-05-25T08:57:21.401Z,23.43
2023-05-25T08:58:21.362Z,23.46
2023-05-25T08:59:21.442Z,23.49
2023-05-25T09:00:21.327Z,23.50
2023-05-25T09:01:21.337Z,23.53
2023-05-25T09:02:21.330Z,23.55
2023-05-25T09:03:21.289Z,23.56
2023-05-25T09:04:21.373Z,23.59
2023-05-25T09:05:21.168Z,23.60
2023-05-25T09:06:21.163Z,23.62
2023-05-25T09:07:21.118Z,23.63
2023-05-25T09:08:21.095Z,23.65
2023-05-25T09:09:21.070Z,23.66
2023-05-25T09:10:21.024Z,23.68
2023-05-25T09:11:34.750Z,23.69
2023-05-25T09:12:21.977Z,23.71
2023-05-25T09:13:23.308Z,23.71
2023-05-25T09:14:20.924Z,23.70
2023-05-25T09:15:20.900Z,23.69
2023-05-25T09:16:20.897Z,23.68
2023-05-25T09:17:20.845Z,23.68
2023-05-25T09:18:20.869Z,23.68
2023-05-25T09:19:20.839Z,23.68
2023-05-25T09:20:20.849Z,23.67
2023-05-25T09:21:20.853Z,23.65
2023-05-25T09:22:20.985Z,23.64
2023-05-25T09:23:20.857Z,23.64
2023-05-25T09:24:20.879Z,23.64
2023-05-25T09:25:20.874Z,23.65
2023-05-25T09:26:20.898Z,23.65
2023-05-25T09:27:20.903Z,23.65
2023-05-25T09:29:20.889Z,23.67
2023-05-25T09:30:20.863Z,23.67
2023-05-25T09:31:20.842Z,23.67
2023-05-25T09:32:20.944Z,23.67
2023-05-25T09:33:20.903Z,23.67
2023-05-25T09:34:20.772Z,23.67
2023-05-25T09:35:20.733Z,23.66
2023-05-25T09:36:20.785Z,23.65
2023-05-25T09:37:20.766Z,23.66
2023-05-25T09:38:20.805Z,23.65
2023-05-25T09:39:20.720Z,23.65
2023-05-25T09:40:20.601Z,23.64
2023-05-25T09:41:20.577Z,23.65
2023-05-25T09:42:20.550Z,23.65
2023-05-25T09:43:36.549Z,23.65
2023-05-25T09:44:21.502Z,23.65
2023-05-25T09:45:20.465Z,23.66
2023-05-25T09:46:20.548Z,23.66
2023-05-25T09:47:20.426Z,23.66
2023-05-25T09:48:20.430Z,23.67
2023-05-25T09:49:20.356Z,23.66
2023-05-25T09:50:20.323Z,23.65
2023-05-25T09:51:20.299Z,23.64
2023-05-25T09:52:20.285Z,23.65
2023-05-25T09:53:20.246Z,23.66
2023-05-25T09:54:20.210Z,23.64
2023-05-25T09:55:20.184Z,23.64
2023-05-25T09:56:20.166Z,23.65
2023-05-25T09:57:20.132Z,23.66
2023-05-25T09:58:20.114Z,23.67
2023-05-25T09:59:20.072Z,23.67
2023-05-25T10:00:20.043Z,23.68
2023-05-25T10:01:20.024Z,23.69
2023-05-25T10:02:19.987Z,23.70
2023-05-25T10:03:19.953Z,23.70
2023-05-25T10:04:19.985Z,23.71
2023-05-25T10:05:19.913Z,23.72
2023-05-25T10:06:19.916Z,23.73
2023-05-25T10:07:19.910Z,23.74
2023-05-25T10:08:20.006Z,23.74
2023-05-25T10:09:19.916Z,23.75
2023-05-25T10:10:19.911Z,23.75
2023-05-25T10:11:19.924Z,23.75
2023-05-25T10:12:19.921Z,23.75
2023-05-25T10:13:19.976Z,23.76
2023-05-25T10:14:19.999Z,23.76
2023-05-25T10:15:19.898Z,23.77
2023-05-25T10:16:19.948Z,23.76
2023-05-25T10:17:19.943Z,23.75
2023-05-25T10:18:21.465Z,23.75
2023-05-25T10:19:19.942Z,23.75
2023-05-25T10:20:19.946Z,23.75
2023-05-25T10:21:19.912Z,23.75
2023-05-25T10:22:19.899Z,23.74
2023-05-25T10:23:19.901Z,23.75
2023-05-25T10:24:19.898Z,23.75
2023-05-25T10:25:19.897Z,23.74
2023-05-25T10:26:19.888Z,23.75
2023-05-25T10:28:20.866Z,23.75
2023-05-25T10:29:19.825Z,23.75
2023-05-25T10:30:19.807Z,23.74
2023-05-25T10:31:20.430Z,23.74
2023-05-25T10:32:19.752Z,23.75
2023-05-25T10:33:19.794Z,23.75
2023-05-25T10:34:19.676Z,23.75
2023-05-25T10:35:19.656Z,23.75
2023-05-25T10:36:19.635Z,23.74
2023-05-25T10:37:19.593Z,23.74
2023-05-25T10:38:19.571Z,23.74
2023-05-25T10:39:19.531Z,23.74
2023-05-25T10:40:19.509Z,23.74
2023-05-25T10:41:19.491Z,23.73
2023-05-25T10:42:19.429Z,23.74
2023-05-25T10:43:19.403Z,23.73
2023-05-25T10:44:19.376Z,23.73
2023-05-25T10:45:19.352Z,23.73
2023-05-25T10:46:19.379Z,23.74
2023-05-25T10:47:19.382Z,23.73
2023-05-25T10:48:19.249Z,23.74
2023-05-25T10:49:19.254Z,23.73
2023-05-25T10:50:19.264Z,23.73
2023-05-25T10:51:20.224Z,23.73
2023-05-25T10:52:19.192Z,23.73
2023-05-25T10:53:19.174Z,23.72
2023-05-25T10:54:19.154Z,23.72
2023-05-25T10:55:19.130Z,23.72
2023-05-25T10:56:19.141Z,23.73
2023-05-25T10:57:19.938Z,23.71
2023-05-25T10:58:19.085Z,23.71
2023-05-25T10:59:19.055Z,23.71
2023-05-25T11:00:19.080Z,23.70
2023-05-25T11:01:19.061Z,23.71
2023-05-25T11:02:19.033Z,23.70
2023-05-25T11:03:18.961Z,23.71
2023-05-25T11:04:19.025Z,23.70
2023-05-25T11:05:18.916Z,23.70
2023-05-25T11:06:18.914Z,23.70
2023-05-25T11:07:18.871Z,23.69
2023-05-25T11:08:18.870Z,23.69
2023-05-25T11:09:18.854Z,23.70
2023-05-25T11:10:18.834Z,23.70
2023-05-25T11:11:18.796Z,23.70
2023-05-25T11:12:18.770Z,23.69
2023-05-25T11:13:18.736Z,23.68
2023-05-25T11:14:18.720Z,23.68
2023-05-25T11:15:18.703Z,23.67
2023-05-25T11:16:18.774Z,23.68
2023-05-25T11:17:18.863Z,23.67
2023-05-25T11:18:18.690Z,23.67
2023-05-25T11:19:18.711Z,23.67
2023-05-25T11:20:18.778Z,23.66
2023-05-25T11:21:18.757Z,23.64
2023-05-25T11:22:18.720Z,23.62
2023-05-25T11:23:18.728Z,23.61
2023-05-25T11:24:18.759Z,23.59
2023-05-25T11:25:18.751Z,23.58
2023-05-25T11:26:18.767Z,23.58
2023-05-25T11:27:18.778Z,23.56
2023-05-25T11:28:18.789Z,23.55
2023-05-25T11:29:18.806Z,23.54
2023-05-25T11:30:18.824Z,23.53
2023-05-25T11:31:18.866Z,23.52
2023-05-25T11:32:18.871Z,23.51
2023-05-25T11:33:18.882Z,23.51
2023-05-25T11:34:18.911Z,23.51
2023-05-25T11:35:18.917Z,23.51
2023-05-25T11:36:18.940Z,23.50
2023-05-25T11:37:18.938Z,23.50
2023-05-25T11:38:18.964Z,23.50
2023-05-25T11:39:22.911Z,23.50
2023-05-25T11:40:18.957Z,23.49
2023-05-25T11:41:18.939Z,23.50
2023-05-25T11:42:18.922Z,23.49
2023-05-25T11:43:18.907Z,23.49
2023-05-25T11:44:18.884Z,23.49
2023-05-25T11:45:18.868Z,23.49
2023-05-25T11:46:18.957Z,23.49
2023-05-25T11:47:19.510Z,23.49
2023-05-25T11:48:18.838Z,23.49
2023-05-25T11:49:18.797Z,23.49
2023-05-25T11:50:18.774Z,23.49
2023-05-25T11:51:18.753Z,23.49
2023-05-25T11:52:18.764Z,23.48
2023-05-25T11:53:18.698Z,23.48
2023-05-25T11:54:18.677Z,23.48
2023-05-25T11:55:18.643Z,23.48
2023-05-25T11:56:33.525Z,23.49
2023-05-25T11:57:19.623Z,23.47
2023-05-25T11:58:18.578Z,23.47
2023-05-25T11:59:18.569Z,23.46
2023-05-25T12:00:18.546Z,23.47
2023-05-25T12:01:18.528Z,23.47
2023-05-25T12:02:18.534Z,23.46
2023-05-25T12:03:18.578Z,23.46
2023-05-25T12:04:18.503Z,23.46
2023-05-25T12:05:18.486Z,23.46
2023-05-25T12:06:18.437Z,23.46
2023-05-25T12:07:18.418Z,23.46
2023-05-25T12:08:18.403Z,23.46
2023-05-25T12:09:18.384Z,23.45
2023-05-25T12:10:18.359Z,23.45
2023-05-25T12:11:18.339Z,23.46
2023-05-25T12:12:18.320Z,23.45
2023-05-25T12:13:18.295Z,23.44
2023-05-25T12:14:18.304Z,23.45
2023-05-25T12:15:20.654Z,23.44
2023-05-25T12:16:18.581Z,23.44
2023-05-25T12:17:18.601Z,23.43
2023-05-25T12:18:18.597Z,23.43
2023-05-25T12:19:18.608Z,23.44
2023-05-25T12:20:18.653Z,23.44
2023-05-25T12:21:18.674Z,23.43
2023-05-25T12:22:18.658Z,23.43
2023-05-25T12:23:18.684Z,23.43
2023-05-25T12:24:18.713Z,23.43
2023-05-25T12:25:18.721Z,23.43
2023-05-25T12:26:19.107Z,23.43
2023-05-25T12:27:18.773Z,23.42
2023-05-25T12:28:18.784Z,23.42
2023-05-25T12:29:18.830Z,23.42
2023-05-25T12:30:18.835Z,23.42
2023-05-25T12:31:18.894Z,23.42
2023-05-25T12:32:18.876Z,23.41
2023-05-25T12:33:18.973Z,23.42
2023-05-25T12:34:18.926Z,23.41
2023-05-25T12:35:18.944Z,23.41
2023-05-25T12:36:18.969Z,23.41
2023-05-25T12:37:18.988Z,23.41
2023-05-25T12:38:19.007Z,23.40
2023-05-25T12:39:19.039Z,23.40
2023-05-25T12:40:20.282Z,23.41
2023-05-25T12:41:19.062Z,23.40
2023-05-25T12:42:19.079Z,23.40
2023-05-25T12:43:19.093Z,23.40
2023-05-25T12:44:19.117Z,23.39
2023-05-25T12:45:19.144Z,23.40
2023-05-25T12:46:19.845Z,23.39
2023-05-25T12:47:19.157Z,23.39
2023-05-25T12:48:19.207Z,23.40
2023-05-25T12:49:19.187Z,23.39
2023-05-25T12:50:19.212Z,23.39
2023-05-25T12:51:19.229Z,23.39
2023-05-25T12:52:19.253Z,23.39
2023-05-25T12:53:19.288Z,23.39
2023-05-25T12:54:19.302Z,23.38
2023-05-25T12:55:19.311Z,23.39
2023-05-25T12:56:19.346Z,23.38